Main page
METAR-TAF:

METAR-TAF

Airports :

Lydd Airport

Lydd, England

latitude: 50-57N, longitude: 000-56E, elevation: 3 m

Current weather observation

The report was made 36 minutes ago, at 11:20 UTC
Wind 26 kt from the Southwest
Temperature 20°C
Humidity 83%
Pressure 1015 hPa
Visibility 10 km or more
Broken clouds at a height of 1300 ft
Broken clouds at a height of 1800 ft

METAR: EGMD 191120Z 22026KT 9999 BKN013 BKN018 20/17 Q1015

Time: 12:56 (11:56 UTC)

Forecast

The report was made 52 minutes ago, at 11:04 UTC
Forecast valid from 19 at 12 UTC to 19 at 21 UTC
Wind 18 kt from the Southwest with gusts up to 28 kt
Visibility 10 km or more
Scattered clouds at a height of 2500 ft
Temporary
from 19 at 12 UTC to 19 at 17 UTC
Wind 26 kt from the Southwest with gusts up to 38 kt
Becoming
from 19 at 18 UTC to 19 at 21 UTC
Wind 14 kt from the Southwest

TAF: EGMD 191104Z 1912/1921 22018G28KT 9999 SCT025 TEMPO 1912/1917 23026G38KT BECMG 1918/1921 22014KT

Weather observations and forecasts of more than 4000 airports (METAR and TAF reports).

The available stations are represented by yellow and red dots on the map.

Hover mouse over dot to see the name of the station.

Then click to see weather observations and forecasts.

To change the map : click on the green buttons with a black cross to zoom in, on the green button with a dash to zoom out, or on the green arrows for adjacent maps.


METAR-TAF: